sensor_id;sensor_type;location;lat;lon;timestamp;temperature;humidity
7155;DHT22;3619;53.784;10.440;2023-06-22T00:00:56;17.20;99.90
7155;DHT22;3619;53.784;10.440;2023-06-22T00:03:24;17.20;99.90
7155;DHT22;3619;53.784;10.440;2023-06-22T00:05:52;17.20;99.90
7155;DHT22;3619;53.784;10.440;2023-06-22T00:08:20;17.20;99.90
7155;DHT22;3619;53.784;10.440;2023-06-22T00:10:47;17.20;99.90
7155;DHT22;3619;53.784;10.440;2023-06-22T00:13:14;17.20;99.90
7155;DHT22;3619;53.784;10.440;2023-06-22T00:15:43;17.10;99.90
7155;DHT22;3619;53.784;10.440;2023-06-22T00:18:10;17.10;99.90
7155;DHT22;3619;53.784;10.440;2023-06-22T00:20:39;17.10;99.90
7155;DHT22;3619;53.784;10.440;2023-06-22T00:23:06;17.10;99.90
7155;DHT22;3619;53.784;10.440;2023-06-22T00:25:36;17.10;99.90
7155;DHT22;3619;53.784;10.440;2023-06-22T00:28:03;17.00;99.90
7155;DHT22;3619;53.784;10.440;2023-06-22T00:30:31;17.00;99.90
7155;DHT22;3619;53.784;10.440;2023-06-22T00:32:58;17.00;99.90
7155;DHT22;3619;53.784;10.440;2023-06-22T00:35:25;17.00;99.90
7155;DHT22;3619;53.784;10.440;2023-06-22T00:37:54;17.00;99.90
7155;DHT22;3619;53.784;10.440;2023-06-22T00:40:26;17.00;99.90
7155;DHT22;3619;53.784;10.440;2023-06-22T00:42:55;17.00;99.90
7155;DHT22;3619;53.784;10.440;2023-06-22T00:45:22;17.00;99.90
7155;DHT22;3619;53.784;10.440;2023-06-22T00:47:50;17.00;99.90
7155;DHT22;3619;53.784;10.440;2023-06-22T00:50:19;17.00;99.90
7155;DHT22;3619;53.784;10.440;2023-06-22T00:52:49;17.00;99.90
7155;DHT22;3619;53.784;10.440;2023-06-22T00:55:18;17.00;99.90
7155;DHT22;3619;53.784;10.440;2023-06-22T00:57:46;17.00;99.90
7155;DHT22;3619;53.784;10.440;2023-06-22T01:00:15;17.00;99.90
7155;DHT22;3619;53.784;10.440;2023-06-22T01:02:43;17.00;99.90
7155;DHT22;3619;53.784;10.440;2023-06-22T01:05:11;17.00;99.90
7155;DHT22;3619;53.784;10.440;2023-06-22T01:07:42;17.00;99.90
7155;DHT22;3619;53.784;10.440;2023-06-22T01:10:16;17.00;99.90
7155;DHT22;3619;53.784;10.440;2023-06-22T01:12:48;17.00;99.90
7155;DHT22;3619;53.784;10.440;2023-06-22T01:15:23;17.00;99.90
7155;DHT22;3619;53.784;10.440;2023-06-22T01:17:52;16.90;99.90
7155;DHT22;3619;53.784;10.440;2023-06-22T01:20:20;16.90;99.90
7155;DHT22;3619;53.784;10.440;2023-06-22T01:22:57;16.90;99.90
7155;DHT22;3619;53.784;10.440;2023-06-22T01:25:31;16.90;99.90
7155;DHT22;3619;53.784;10.440;2023-06-22T01:28:05;16.90;99.90
7155;DHT22;3619;53.784;10.440;2023-06-22T01:30:42;16.90;99.90
7155;DHT22;3619;53.784;10.440;2023-06-22T01:33:10;16.80;99.90
7155;DHT22;3619;53.784;10.440;2023-06-22T01:35:38;16.80;99.90
7155;DHT22;3619;53.784;10.440;2023-06-22T01:38:06;16.80;99.90
7155;DHT22;3619;53.784;10.440;2023-06-22T01:40:34;16.80;99.90
7155;DHT22;3619;53.784;10.440;2023-06-22T01:43:01;16.70;99.90
7155;DHT22;3619;53.784;10.440;2023-06-22T01:45:28;16.70;99.90
7155;DHT22;3619;53.784;10.440;2023-06-22T01:47:58;16.70;99.90
7155;DHT22;3619;53.784;10.440;2023-06-22T01:50:25;16.70;99.90
7155;DHT22;3619;53.784;10.440;2023-06-22T01:52:51;16.70;99.90
7155;DHT22;3619;53.784;10.440;2023-06-22T01:55:19;16.70;99.90
7155;DHT22;3619;53.784;10.440;2023-06-22T01:57:45;16.70;99.90
7155;DHT22;3619;53.784;10.440;2023-06-22T02:00:18;16.70;99.90
7155;DHT22;3619;53.784;10.440;2023-06-22T02:02:52;16.70;99.90
7155;DHT22;3619;53.784;10.440;2023-06-22T02:05:24;16.60;99.90
7155;DHT22;3619;53.784;10.440;2023-06-22T02:07:58;16.60;99.90
7155;DHT22;3619;53.784;10.440;2023-06-22T02:10:27;16.60;99.90
7155;DHT22;3619;53.784;10.440;2023-06-22T02:12:54;16.60;99.90
7155;DHT22;3619;53.784;10.440;2023-06-22T02:15:22;16.60;99.90
7155;DHT22;3619;53.784;10.440;2023-06-22T02:17:49;16.60;99.90
7155;DHT22;3619;53.784;10.440;2023-06-22T02:20:16;16.60;99.90
7155;DHT22;3619;53.784;10.440;2023-06-22T02:22:45;16.50;99.90
7155;DHT22;3619;53.784;10.440;2023-06-22T02:25:11;16.50;99.90
7155;DHT22;3619;53.784;10.440;2023-06-22T02:27:38;16.40;99.90
7155;DHT22;3619;53.784;10.440;2023-06-22T02:30:10;16.40;99.90
7155;DHT22;3619;53.784;10.440;2023-06-22T02:32:37;16.40;99.90
7155;DHT22;3619;53.784;10.440;2023-06-22T02:35:08;16.40;99.90
7155;DHT22;3619;53.784;10.440;2023-06-22T02:37:35;16.40;99.90
7155;DHT22;3619;53.784;10.440;2023-06-22T02:40:07;16.40;99.90
7155;DHT22;3619;53.784;10.440;2023-06-22T02:42:34;16.40;99.90
7155;DHT22;3619;53.784;10.440;2023-06-22T02:45:01;16.30;99.90
7155;DHT22;3619;53.784;10.440;2023-06-22T02:47:28;16.30;99.90
7155;DHT22;3619;53.784;10.440;2023-06-22T02:49:54;16.30;99.90
7155;DHT22;3619;53.784;10.440;2023-06-22T02:52:21;16.30;99.90
7155;DHT22;3619;53.784;10.440;2023-06-22T02:54:48;16.30;99.90
7155;DHT22;3619;53.784;10.440;2023-06-22T02:57:16;16.30;99.90
7155;DHT22;3619;53.784;10.440;2023-06-22T02:59:43;16.30;99.90
7155;DHT22;3619;53.784;10.440;2023-06-22T03:02:11;16.30;99.90
7155;DHT22;3619;53.784;10.440;2023-06-22T03:04:38;16.30;99.90
7155;DHT22;3619;53.784;10.440;2023-06-22T03:07:05;16.30;99.90
7155;DHT22;3619;53.784;10.440;2023-06-22T03:09:31;16.30;99.90
7155;DHT22;3619;53.784;10.440;2023-06-22T03:11:58;16.30;99.90
7155;DHT22;3619;53.784;10.440;2023-06-22T03:14:27;16.30;99.90
7155;DHT22;3619;53.784;10.440;2023-06-22T03:16:53;16.20;99.90
7155;DHT22;3619;53.784;10.440;2023-06-22T03:19:26;16.20;99.90
7155;DHT22;3619;53.784;10.440;2023-06-22T03:21:55;16.20;99.90
7155;DHT22;3619;53.784;10.440;2023-06-22T03:24:22;16.00;99.90
7155;DHT22;3619;53.784;10.440;2023-06-22T03:26:48;15.80;99.90
7155;DHT22;3619;53.784;10.440;2023-06-22T03:29:15;15.70;99.90
7155;DHT22;3619;53.784;10.440;2023-06-22T03:31:44;15.60;99.90
7155;DHT22;3619;53.784;10.440;2023-06-22T03:34:11;15.50;99.90
7155;DHT22;3619;53.784;10.440;2023-06-22T03:36:40;15.40;99.90
7155;DHT22;3619;53.784;10.440;2023-06-22T03:39:08;15.40;99.90
7155;DHT22;3619;53.784;10.440;2023-06-22T03:41:34;15.50;99.90
7155;DHT22;3619;53.784;10.440;2023-06-22T03:44:01;15.60;99.90
7155;DHT22;3619;53.784;10.440;2023-06-22T03:46:28;15.60;99.90
7155;DHT22;3619;53.784;10.440;2023-06-22T03:48:57;15.60;99.90
7155;DHT22;3619;53.784;10.440;2023-06-22T03:51:24;15.60;99.90
7155;DHT22;3619;53.784;10.440;2023-06-22T03:53:50;15.60;99.90
7155;DHT22;3619;53.784;10.440;2023-06-22T03:56:17;15.70;99.90
7155;DHT22;3619;53.784;10.440;2023-06-22T03:58:46;15.90;99.90
7155;DHT22;3619;53.784;10.440;2023-06-22T04:01:13;16.00;99.90
7155;DHT22;3619;53.784;10.440;2023-06-22T04:03:41;16.10;99.90
7155;DHT22;3619;53.784;10.440;2023-06-22T04:06:09;16.20;99.90
7155;DHT22;3619;53.784;10.440;2023-06-22T04:08:36;16.30;99.90
7155;DHT22;3619;53.784;10.440;2023-06-22T04:11:03;16.40;99.90
7155;DHT22;3619;53.784;10.440;2023-06-22T04:13:30;16.50;99.90
7155;DHT22;3619;53.784;10.440;2023-06-22T04:15:57;16.50;99.90
7155;DHT22;3619;53.784;10.440;2023-06-22T04:18:24;16.60;99.90
7155;DHT22;3619;53.784;10.440;2023-06-22T04:20:51;16.70;99.90
7155;DHT22;3619;53.784;10.440;2023-06-22T04:23:19;16.70;99.90
7155;DHT22;3619;53.784;10.440;2023-06-22T04:25:46;16.80;99.90
7155;DHT22;3619;53.784;10.440;2023-06-22T04:28:13;16.90;99.90
7155;DHT22;3619;53.784;10.440;2023-06-22T04:30:40;16.80;99.90
7155;DHT22;3619;53.784;10.440;2023-06-22T04:33:12;16.80;99.90
7155;DHT22;3619;53.784;10.440;2023-06-22T04:35:39;16.70;99.90
7155;DHT22;3619;53.784;10.440;2023-06-22T04:38:06;16.70;99.90
7155;DHT22;3619;53.784;10.440;2023-06-22T04:40:35;16.80;99.90
7155;DHT22;3619;53.784;10.440;2023-06-22T04:43:02;16.90;99.90
7155;DHT22;3619;53.784;10.440;2023-06-22T04:45:30;17.00;99.90
7155;DHT22;3619;53.784;10.440;2023-06-22T04:47:57;17.10;99.90
7155;DHT22;3619;53.784;10.440;2023-06-22T04:50:23;17.10;99.90
7155;DHT22;3619;53.784;10.440;2023-06-22T04:52:51;17.10;99.90
7155;DHT22;3619;53.784;10.440;2023-06-22T04:55:19;17.30;99.90
7155;DHT22;3619;53.784;10.440;2023-06-22T04:57:48;17.30;99.90
7155;DHT22;3619;53.784;10.440;2023-06-22T05:00:16;17.40;99.90
7155;DHT22;3619;53.784;10.440;2023-06-22T05:02:44;17.50;99.90
7155;DHT22;3619;53.784;10.440;2023-06-22T05:05:12;17.50;99.90
7155;DHT22;3619;53.784;10.440;2023-06-22T05:07:41;17.60;99.90
7155;DHT22;3619;53.784;10.440;2023-06-22T05:10:10;17.70;99.90
7155;DHT22;3619;53.784;10.440;2023-06-22T05:12:38;17.80;99.90
7155;DHT22;3619;53.784;10.440;2023-06-22T05:15:07;17.80;99.90
7155;DHT22;3619;53.784;10.440;2023-06-22T05:17:35;17.90;99.90
7155;DHT22;3619;53.784;10.440;2023-06-22T05:20:03;17.90;99.90
7155;DHT22;3619;53.784;10.440;2023-06-22T05:22:32;17.90;99.90
7155;DHT22;3619;53.784;10.440;2023-06-22T05:24:58;17.90;99.90
7155;DHT22;3619;53.784;10.440;2023-06-22T05:27:25;17.90;99.90
7155;DHT22;3619;53.784;10.440;2023-06-22T05:29:52;18.00;99.90
7155;DHT22;3619;53.784;10.440;2023-06-22T05:32:20;17.90;99.90
7155;DHT22;3619;53.784;10.440;2023-06-22T05:34:47;17.80;99.90
7155;DHT22;3619;53.784;10.440;2023-06-22T05:37:14;17.70;99.90
7155;DHT22;3619;53.784;10.440;2023-06-22T05:39:41;17.80;99.90
7155;DHT22;3619;53.784;10.440;2023-06-22T05:42:08;17.80;99.90
7155;DHT22;3619;53.784;10.440;2023-06-22T05:44:35;17.90;99.90
7155;DHT22;3619;53.784;10.440;2023-06-22T05:47:04;18.10;99.90
7155;DHT22;3619;53.784;10.440;2023-06-22T05:49:36;18.30;99.90
7155;DHT22;3619;53.784;10.440;2023-06-22T05:58:12;18.40;99.90
7155;DHT22;3619;53.784;10.440;2023-06-22T06:07:32;18.80;99.90
7155;DHT22;3619;53.784;10.440;2023-06-22T06:09:59;19.00;99.90
7155;DHT22;3619;53.784;10.440;2023-06-22T06:12:32;18.90;99.90
7155;DHT22;3619;53.784;10.440;2023-06-22T06:14:59;18.90;99.90
7155;DHT22;3619;53.784;10.440;2023-06-22T06:17:26;19.00;99.90
7155;DHT22;3619;53.784;10.440;2023-06-22T06:19:53;19.10;99.90
7155;DHT22;3619;53.784;10.440;2023-06-22T06:28:11;19.40;99.90
7155;DHT22;3619;53.784;10.440;2023-06-22T06:30:38;19.50;99.90
7155;DHT22;3619;53.784;10.440;2023-06-22T06:33:09;19.60;99.90
7155;DHT22;3619;53.784;10.440;2023-06-22T06:35:35;19.80;99.90
7155;DHT22;3619;53.784;10.440;2023-06-22T06:38:03;20.00;99.90
7155;DHT22;3619;53.784;10.440;2023-06-22T06:40:30;20.00;99.90
7155;DHT22;3619;53.784;10.440;2023-06-22T06:56:20;20.20;99.90
7155;DHT22;3619;53.784;10.440;2023-06-22T06:58:36;20.30;99.90
7155;DHT22;3619;53.784;10.440;2023-06-22T07:26:57;20.00;99.90
7155;DHT22;3619;53.784;10.440;2023-06-22T07:29:24;20.20;99.90
7155;DHT22;3619;53.784;10.440;2023-06-22T07:42:14;21.40;99.90
7155;DHT22;3619;53.784;10.440;2023-06-22T07:44:47;21.60;99.90
7155;DHT22;3619;53.784;10.440;2023-06-22T07:47:45;21.70;99.90
7155;DHT22;3619;53.784;10.440;2023-06-22T07:50:13;22.00;99.90
7155;DHT22;3619;53.784;10.440;2023-06-22T07:52:39;22.30;99.90
7155;DHT22;3619;53.784;10.440;2023-06-22T07:55:07;22.40;99.90
7155;DHT22;3619;53.784;10.440;2023-06-22T07:57:35;22.40;99.90
7155;DHT22;3619;53.784;10.440;2023-06-22T08:00:04;22.10;99.90
7155;DHT22;3619;53.784;10.440;2023-06-22T08:02:38;22.30;99.90
7155;DHT22;3619;53.784;10.440;2023-06-22T08:05:07;22.40;99.90
7155;DHT22;3619;53.784;10.440;2023-06-22T08:07:35;22.60;99.90
7155;DHT22;3619;53.784;10.440;2023-06-22T08:10:05;22.70;99.90
7155;DHT22;3619;53.784;10.440;2023-06-22T08:12:36;22.80;99.90
7155;DHT22;3619;53.784;10.440;2023-06-22T08:15:03;22.90;99.90
7155;DHT22;3619;53.784;10.440;2023-06-22T08:17:30;23.10;99.90
7155;DHT22;3619;53.784;10.440;2023-06-22T08:19:57;23.20;99.90
7155;DHT22;3619;53.784;10.440;2023-06-22T08:22:24;23.80;99.90
7155;DHT22;3619;53.784;10.440;2023-06-22T08:24:52;24.30;99.90
7155;DHT22;3619;53.784;10.440;2023-06-22T08:27:33;24.40;99.90
7155;DHT22;3619;53.784;10.440;2023-06-22T08:30:18;24.10;99.90
7155;DHT22;3619;53.784;10.440;2023-06-22T08:43:09;24.30;99.90
7155;DHT22;3619;53.784;10.440;2023-06-22T08:45:53;24.20;99.90
7155;DHT22;3619;53.784;10.440;2023-06-22T08:49:17;24.10;99.90
7155;DHT22;3619;53.784;10.440;2023-06-22T08:56:12;24.20;99.90
7155;DHT22;3619;53.784;10.440;2023-06-22T08:58:52;23.80;99.90
7155;DHT22;3619;53.784;10.440;2023-06-22T09:01:37;23.60;99.90
7155;DHT22;3619;53.784;10.440;2023-06-22T09:04:34;23.20;99.90
7155;DHT22;3619;53.784;10.440;2023-06-22T09:07:47;22.90;99.90
7155;DHT22;3619;53.784;10.440;2023-06-22T09:10:32;23.30;99.90
7155;DHT22;3619;53.784;10.440;2023-06-22T09:19:49;24.60;99.90
7155;DHT22;3619;53.784;10.440;2023-06-22T09:22:16;24.60;99.90
7155;DHT22;3619;53.784;10.440;2023-06-22T09:24:43;24.40;99.90
7155;DHT22;3619;53.784;10.440;2023-06-22T09:27:10;24.70;99.90
7155;DHT22;3619;53.784;10.440;2023-06-22T09:29:37;24.70;99.90
7155;DHT22;3619;53.784;10.440;2023-06-22T09:32:04;24.70;99.90
7155;DHT22;3619;53.784;10.440;2023-06-22T09:34:31;24.80;99.90
7155;DHT22;3619;53.784;10.440;2023-06-22T09:36:59;24.80;99.90
7155;DHT22;3619;53.784;10.440;2023-06-22T09:39:27;25.00;99.90
7155;DHT22;3619;53.784;10.440;2023-06-22T09:41:54;25.00;99.90
7155;DHT22;3619;53.784;10.440;2023-06-22T09:47:58;24.50;99.90
7155;DHT22;3619;53.784;10.440;2023-06-22T09:50:25;24.50;99.90
7155;DHT22;3619;53.784;10.440;2023-06-22T09:52:53;24.30;99.90
7155;DHT22;3619;53.784;10.440;2023-06-22T09:55:20;24.40;99.90
7155;DHT22;3619;53.784;10.440;2023-06-22T09:57:47;24.50;99.90
7155;DHT22;3619;53.784;10.440;2023-06-22T10:00:15;24.50;99.90
7155;DHT22;3619;53.784;10.440;2023-06-22T10:02:44;24.80;99.90
7155;DHT22;3619;53.784;10.440;2023-06-22T10:05:12;25.10;99.90
7155;DHT22;3619;53.784;10.440;2023-06-22T10:07:42;25.30;99.90
7155;DHT22;3619;53.784;10.440;2023-06-22T10:10:11;25.50;99.90
7155;DHT22;3619;53.784;10.440;2023-06-22T10:12:41;25.80;99.90
7155;DHT22;3619;53.784;10.440;2023-06-22T10:15:10;26.10;99.90
7155;DHT22;3619;53.784;10.440;2023-06-22T10:17:37;26.00;99.90
7155;DHT22;3619;53.784;10.440;2023-06-22T10:20:05;25.70;99.90
7155;DHT22;3619;53.784;10.440;2023-06-22T10:22:38;25.50;99.90
7155;DHT22;3619;53.784;10.440;2023-06-22T10:25:06;25.20;99.90
7155;DHT22;3619;53.784;10.440;2023-06-22T10:27:34;24.80;99.90
7155;DHT22;3619;53.784;10.440;2023-06-22T10:30:02;24.40;99.90
7155;DHT22;3619;53.784;10.440;2023-06-22T10:32:30;24.10;99.90
7155;DHT22;3619;53.784;10.440;2023-06-22T10:34:57;24.00;99.90
7155;DHT22;3619;53.784;10.440;2023-06-22T10:37:24;24.00;99.90
7155;DHT22;3619;53.784;10.440;2023-06-22T10:39:51;24.00;99.90
7155;DHT22;3619;53.784;10.440;2023-06-22T10:42:20;24.20;99.90
7155;DHT22;3619;53.784;10.440;2023-06-22T10:44:48;24.40;99.90
7155;DHT22;3619;53.784;10.440;2023-06-22T10:47:15;24.70;99.90
7155;DHT22;3619;53.784;10.440;2023-06-22T10:49:42;24.80;99.90
7155;DHT22;3619;53.784;10.440;2023-06-22T10:52:09;25.40;99.90
7155;DHT22;3619;53.784;10.440;2023-06-22T10:54:37;26.10;99.90
7155;DHT22;3619;53.784;10.440;2023-06-22T10:57:04;26.00;99.90
7155;DHT22;3619;53.784;10.440;2023-06-22T10:59:31;26.00;99.90
7155;DHT22;3619;53.784;10.440;2023-06-22T11:01:59;26.40;99.90
7155;DHT22;3619;53.784;10.440;2023-06-22T11:04:27;26.30;99.90
7155;DHT22;3619;53.784;10.440;2023-06-22T11:06:54;25.90;99.90
7155;DHT22;3619;53.784;10.440;2023-06-22T11:09:21;26.20;99.90
7155;DHT22;3619;53.784;10.440;2023-06-22T11:11:49;26.60;99.90
7155;DHT22;3619;53.784;10.440;2023-06-22T11:14:18;26.80;99.90
7155;DHT22;3619;53.784;10.440;2023-06-22T11:16:45;27.10;99.90
7155;DHT22;3619;53.784;10.440;2023-06-22T11:19:14;26.90;99.90
7155;DHT22;3619;53.784;10.440;2023-06-22T11:21:41;26.60;99.90
7155;DHT22;3619;53.784;10.440;2023-06-22T11:24:08;26.30;99.90
7155;DHT22;3619;53.784;10.440;2023-06-22T11:26:35;26.00;99.90
7155;DHT22;3619;53.784;10.440;2023-06-22T11:29:02;25.70;99.90
7155;DHT22;3619;53.784;10.440;2023-06-22T11:31:30;25.50;99.90
7155;DHT22;3619;53.784;10.440;2023-06-22T11:33:57;25.50;99.90
7155;DHT22;3619;53.784;10.440;2023-06-22T11:36:26;25.50;99.90
7155;DHT22;3619;53.784;10.440;2023-06-22T11:38:53;25.60;99.90
7155;DHT22;3619;53.784;10.440;2023-06-22T11:41:19;25.60;99.90
7155;DHT22;3619;53.784;10.440;2023-06-22T11:43:47;26.20;99.90
7155;DHT22;3619;53.784;10.440;2023-06-22T11:46:14;26.50;99.90
7155;DHT22;3619;53.784;10.440;2023-06-22T11:48:41;26.50;99.90
7155;DHT22;3619;53.784;10.440;2023-06-22T11:51:08;26.60;99.90
7155;DHT22;3619;53.784;10.440;2023-06-22T11:53:36;26.40;99.90
7155;DHT22;3619;53.784;10.440;2023-06-22T11:56:02;26.30;99.90
7155;DHT22;3619;53.784;10.440;2023-06-22T11:58:29;26.00;99.90
7155;DHT22;3619;53.784;10.440;2023-06-22T12:00:56;25.70;99.90
7155;DHT22;3619;53.784;10.440;2023-06-22T12:03:23;25.60;99.90
7155;DHT22;3619;53.784;10.440;2023-06-22T12:05:50;25.60;99.90
7155;DHT22;3619;53.784;10.440;2023-06-22T12:08:17;25.40;99.90
7155;DHT22;3619;53.784;10.440;2023-06-22T12:10:47;25.30;99.90
7155;DHT22;3619;53.784;10.440;2023-06-22T12:13:14;25.30;99.90
7155;DHT22;3619;53.784;10.440;2023-06-22T12:15:43;25.60;99.90
7155;DHT22;3619;53.784;10.440;2023-06-22T12:18:10;26.00;99.90
7155;DHT22;3619;53.784;10.440;2023-06-22T12:20:36;26.20;99.90
7155;DHT22;3619;53.784;10.440;2023-06-22T12:23:03;26.00;99.90
7155;DHT22;3619;53.784;10.440;2023-06-22T12:25:32;25.70;99.90
7155;DHT22;3619;53.784;10.440;2023-06-22T12:28:00;25.50;99.90
7155;DHT22;3619;53.784;10.440;2023-06-22T12:30:28;25.50;99.90
7155;DHT22;3619;53.784;10.440;2023-06-22T12:32:54;25.70;99.90
7155;DHT22;3619;53.784;10.440;2023-06-22T12:35:21;25.60;99.90
7155;DHT22;3619;53.784;10.440;2023-06-22T12:37:48;25.40;99.90
7155;DHT22;3619;53.784;10.440;2023-06-22T12:40:15;25.20;99.90
7155;DHT22;3619;53.784;10.440;2023-06-22T12:42:42;25.10;99.90
7155;DHT22;3619;53.784;10.440;2023-06-22T12:45:10;25.30;99.90
7155;DHT22;3619;53.784;10.440;2023-06-22T12:47:37;25.60;99.90
7155;DHT22;3619;53.784;10.440;2023-06-22T12:50:05;25.90;99.90
7155;DHT22;3619;53.784;10.440;2023-06-22T12:52:32;26.00;99.90
7155;DHT22;3619;53.784;10.440;2023-06-22T12:55:00;26.00;99.90
7155;DHT22;3619;53.784;10.440;2023-06-22T12:57:27;26.10;99.90
7155;DHT22;3619;53.784;10.440;2023-06-22T12:59:53;25.80;99.90
7155;DHT22;3619;53.784;10.440;2023-06-22T13:02:22;25.60;99.90
7155;DHT22;3619;53.784;10.440;2023-06-22T13:04:49;25.60;99.90
7155;DHT22;3619;53.784;10.440;2023-06-22T13:07:16;25.80;99.90
7155;DHT22;3619;53.784;10.440;2023-06-22T13:09:43;25.70;99.90
7155;DHT22;3619;53.784;10.440;2023-06-22T13:12:12;25.50;99.90
7155;DHT22;3619;53.784;10.440;2023-06-22T13:14:38;25.50;99.90
7155;DHT22;3619;53.784;10.440;2023-06-22T13:17:08;25.60;99.90
7155;DHT22;3619;53.784;10.440;2023-06-22T13:19:36;25.70;99.90
7155;DHT22;3619;53.784;10.440;2023-06-22T13:22:03;25.70;99.90
7155;DHT22;3619;53.784;10.440;2023-06-22T13:24:31;25.80;99.90
7155;DHT22;3619;53.784;10.440;2023-06-22T13:26:58;25.80;99.90
7155;DHT22;3619;53.784;10.440;2023-06-22T13:29:25;25.70;99.90
7155;DHT22;3619;53.784;10.440;2023-06-22T13:31:52;25.70;99.90
7155;DHT22;3619;53.784;10.440;2023-06-22T13:34:24;25.60;99.90
7155;DHT22;3619;53.784;10.440;2023-06-22T13:36:52;25.50;99.90
7155;DHT22;3619;53.784;10.440;2023-06-22T13:39:19;25.40;99.90
7155;DHT22;3619;53.784;10.440;2023-06-22T13:41:46;25.30;99.90
7155;DHT22;3619;53.784;10.440;2023-06-22T13:44:12;25.30;99.90
7155;DHT22;3619;53.784;10.440;2023-06-22T13:46:39;25.40;99.90
7155;DHT22;3619;53.784;10.440;2023-06-22T13:49:06;25.40;99.90
7155;DHT22;3619;53.784;10.440;2023-06-22T13:51:33;25.40;99.90
7155;DHT22;3619;53.784;10.440;2023-06-22T13:54:08;25.50;99.90
7155;DHT22;3619;53.784;10.440;2023-06-22T13:56:35;25.60;99.90
7155;DHT22;3619;53.784;10.440;2023-06-22T13:59:02;25.70;99.90
7155;DHT22;3619;53.784;10.440;2023-06-22T14:01:29;26.00;99.90
7155;DHT22;3619;53.784;10.440;2023-06-22T14:03:56;26.20;99.90
7155;DHT22;3619;53.784;10.440;2023-06-22T14:06:22;26.20;99.90
7155;DHT22;3619;53.784;10.440;2023-06-22T14:08:49;26.10;99.90
7155;DHT22;3619;53.784;10.440;2023-06-22T14:11:20;26.10;99.90
7155;DHT22;3619;53.784;10.440;2023-06-22T14:13:47;26.00;99.90
7155;DHT22;3619;53.784;10.440;2023-06-22T14:16:16;25.80;99.90
7155;DHT22;3619;53.784;10.440;2023-06-22T14:18:44;25.70;99.90
7155;DHT22;3619;53.784;10.440;2023-06-22T14:21:13;25.60;99.90
7155;DHT22;3619;53.784;10.440;2023-06-22T14:23:40;25.50;99.90
7155;DHT22;3619;53.784;10.440;2023-06-22T14:26:06;25.50;99.90
7155;DHT22;3619;53.784;10.440;2023-06-22T14:28:35;25.60;99.90
7155;DHT22;3619;53.784;10.440;2023-06-22T14:31:03;25.60;99.90
7155;DHT22;3619;53.784;10.440;2023-06-22T14:33:29;25.50;99.90
7155;DHT22;3619;53.784;10.440;2023-06-22T14:35:57;25.50;99.90
7155;DHT22;3619;53.784;10.440;2023-06-22T14:38:24;25.50;99.90
7155;DHT22;3619;53.784;10.440;2023-06-22T14:40:50;25.40;99.90
7155;DHT22;3619;53.784;10.440;2023-06-22T14:43:18;25.30;99.90
7155;DHT22;3619;53.784;10.440;2023-06-22T14:45:48;25.20;99.90
7155;DHT22;3619;53.784;10.440;2023-06-22T14:48:15;25.10;99.90
7155;DHT22;3619;53.784;10.440;2023-06-22T14:50:42;25.10;99.90
7155;DHT22;3619;53.784;10.440;2023-06-22T14:53:08;25.20;99.90
7155;DHT22;3619;53.784;10.440;2023-06-22T14:55:36;25.30;99.90
7155;DHT22;3619;53.784;10.440;2023-06-22T14:58:02;25.30;99.90
7155;DHT22;3619;53.784;10.440;2023-06-22T15:00:30;25.20;99.90
7155;DHT22;3619;53.784;10.440;2023-06-22T15:02:58;25.00;99.90
7155;DHT22;3619;53.784;10.440;2023-06-22T15:05:25;24.90;99.90
7155;DHT22;3619;53.784;10.440;2023-06-22T15:07:52;24.90;99.90
7155;DHT22;3619;53.784;10.440;2023-06-22T15:10:21;24.90;99.90
7155;DHT22;3619;53.784;10.440;2023-06-22T15:12:48;24.70;99.90
7155;DHT22;3619;53.784;10.440;2023-06-22T15:15:15;24.60;99.90
7155;DHT22;3619;53.784;10.440;2023-06-22T15:17:41;24.50;99.90
7155;DHT22;3619;53.784;10.440;2023-06-22T15:20:10;24.40;99.90
7155;DHT22;3619;53.784;10.440;2023-06-22T15:22:37;24.30;99.90
7155;DHT22;3619;53.784;10.440;2023-06-22T15:25:04;24.20;99.90
7155;DHT22;3619;53.784;10.440;2023-06-22T15:27:31;24.10;99.90
7155;DHT22;3619;53.784;10.440;2023-06-22T15:29:58;24.10;99.90
7155;DHT22;3619;53.784;10.440;2023-06-22T15:32:25;24.10;99.90
7155;DHT22;3619;53.784;10.440;2023-06-22T15:34:52;24.10;99.90
7155;DHT22;3619;53.784;10.440;2023-06-22T15:37:23;24.00;99.90
7155;DHT22;3619;53.784;10.440;2023-06-22T15:39:50;23.90;99.90
7155;DHT22;3619;53.784;10.440;2023-06-22T15:42:17;23.80;99.90
7155;DHT22;3619;53.784;10.440;2023-06-22T15:44:44;23.70;99.90
7155;DHT22;3619;53.784;10.440;2023-06-22T15:47:11;23.60;99.90
7155;DHT22;3619;53.784;10.440;2023-06-22T15:49:38;23.30;99.90
7155;DHT22;3619;53.784;10.440;2023-06-22T15:52:05;23.00;99.90
7155;DHT22;3619;53.784;10.440;2023-06-22T15:54:33;22.90;99.90
7155;DHT22;3619;53.784;10.440;2023-06-22T15:57:00;22.80;99.90
7155;DHT22;3619;53.784;10.440;2023-06-22T15:59:27;22.70;99.90
7155;DHT22;3619;53.784;10.440;2023-06-22T16:01:54;22.60;99.90
7155;DHT22;3619;53.784;10.440;2023-06-22T16:04:21;22.60;99.90
7155;DHT22;3619;53.784;10.440;2023-06-22T16:06:47;22.50;99.90
7155;DHT22;3619;53.784;10.440;2023-06-22T16:09:15;22.50;99.90
7155;DHT22;3619;53.784;10.440;2023-06-22T16:11:43;22.60;99.90
7155;DHT22;3619;53.784;10.440;2023-06-22T16:14:11;22.60;99.90
7155;DHT22;3619;53.784;10.440;2023-06-22T16:16:37;22.50;99.90
7155;DHT22;3619;53.784;10.440;2023-06-22T16:19:05;22.40;99.90
7155;DHT22;3619;53.784;10.440;2023-06-22T16:21:32;22.40;99.90
7155;DHT22;3619;53.784;10.440;2023-06-22T16:24:00;22.30;99.90
7155;DHT22;3619;53.784;10.440;2023-06-22T16:26:29;22.30;99.90
7155;DHT22;3619;53.784;10.440;2023-06-22T16:29:01;22.30;99.90
7155;DHT22;3619;53.784;10.440;2023-06-22T16:31:36;22.20;99.90
7155;DHT22;3619;53.784;10.440;2023-06-22T16:34:03;22.10;99.90
7155;DHT22;3619;53.784;10.440;2023-06-22T16:36:30;22.10;99.90
7155;DHT22;3619;53.784;10.440;2023-06-22T16:39:17;22.00;99.90
7155;DHT22;3619;53.784;10.440;2023-06-22T16:41:44;22.00;99.90
7155;DHT22;3619;53.784;10.440;2023-06-22T16:44:12;22.00;99.90
7155;DHT22;3619;53.784;10.440;2023-06-22T16:46:39;21.90;99.90
7155;DHT22;3619;53.784;10.440;2023-06-22T16:49:06;21.90;99.90
7155;DHT22;3619;53.784;10.440;2023-06-22T16:51:33;21.90;99.90
7155;DHT22;3619;53.784;10.440;2023-06-22T16:53:59;21.80;99.90
7155;DHT22;3619;53.784;10.440;2023-06-22T16:56:27;21.80;99.90
7155;DHT22;3619;53.784;10.440;2023-06-22T16:58:56;21.80;99.90
7155;DHT22;3619;53.784;10.440;2023-06-22T17:01:25;21.80;99.90
7155;DHT22;3619;53.784;10.440;2023-06-22T17:04:01;21.80;99.90
7155;DHT22;3619;53.784;10.440;2023-06-22T17:06:30;21.90;99.90
7155;DHT22;3619;53.784;10.440;2023-06-22T17:08:59;21.80;99.90
7155;DHT22;3619;53.784;10.440;2023-06-22T17:11:28;21.80;99.90
7155;DHT22;3619;53.784;10.440;2023-06-22T17:13:54;21.80;99.90
7155;DHT22;3619;53.784;10.440;2023-06-22T17:16:24;21.80;99.90
7155;DHT22;3619;53.784;10.440;2023-06-22T17:18:52;21.90;99.90
7155;DHT22;3619;53.784;10.440;2023-06-22T17:21:22;21.80;99.90
7155;DHT22;3619;53.784;10.440;2023-06-22T17:23:49;21.80;99.90
7155;DHT22;3619;53.784;10.440;2023-06-22T17:26:17;21.80;99.90